East Laurinburg, North Carolina
Current Conditions -  °F | °C
As of 9:52 PM on Tuesday 25 Nov 2014 (Local Time) from KMEB Reporting Station
Light Rain Light Rain  
Wind Chill: 51°   Ceiling: 1000
Heat Index: 51°   Visibility: 10mi
Dew Point: 49°   Wind: 13mph
Humidity: 92%   Direction: 50°NE
Pressure: 30.05"   Gusts: NA
Location:  34.7588°N, 79.4468°W
Report Text: KMEB 260252Z AUTO 05011KT 10SM -RA OVC010 11/09 A3005 RMK AO2 SLP176 P0002 60007 T01060094 50001
Loading
Personal Weather Stations






























Interactive Weather Map New forecast layout! Learn more

10-Day Weather Forecast

Advertisements
Track Severe Weather on mobile